アテネ の空港の天気 - METARとTAF

アテネ国際空港 ( LGAV / ATH ) - ギリシャ アテネ
飛行場実況気象(Metar)
観測時間09/26 23:20 EEST (09/26 20:20 UTC)
風向・風速西 5m/s
視程10km以上
天気現象
少しの雲 雲底高度 760m
全天の4割程度の雲 雲底高度 1520m
気温23℃
湿度50%
気圧1006hPa
METARLGAV 262020Z 28009KT 250V320 9999 FEW025 SCT050 23/12 Q1006 NOSIG
過去の天気等 Google飛行場航空写真 Wunderground天気予報

過去48時間のMETAR

飛行場予報(TAF)
発表時間: 9/26 20:00 EEST (9/26 17:00 UTC)
予報対象時間: 26日21時 EEST ~ 27日21時 EEST
風向・風速南西 11m/s 瞬間風速 16m/s
視程10km以上
少しの雲 雲底高度 610m
全天の4割程度の雲 雲底高度 2130m
27日2時 EEST ~ 27日4時 EEST に徐々に
風向・風速西 7m/s
TAF LGAV 261700Z 2618/2718 23021G31KT 9999 FEW020 SCT070
BECMG 2623/2701 28014KT